sensor_id;sensor_type;location;lat;lon;timestamp;P1;durP1;ratioP1;P2;durP2;ratioP2
51862;SDS011;37900;52.996;6.278;2023-04-01T00:01:33;2.38;;;1.40;;
51862;SDS011;37900;52.996;6.278;2023-04-01T00:03:58;2.65;;;1.40;;
51862;SDS011;37900;52.996;6.278;2023-04-01T00:06:27;2.80;;;1.30;;
51862;SDS011;37900;52.996;6.278;2023-04-01T00:08:53;1.00;;;0.88;;
51862;SDS011;37900;52.996;6.278;2023-04-01T00:11:19;1.67;;;0.93;;
51862;SDS011;37900;52.996;6.278;2023-04-01T00:13:45;1.77;;;1.38;;
51862;SDS011;37900;52.996;6.278;2023-04-01T00:16:11;1.63;;;1.10;;
51862;SDS011;37900;52.996;6.278;2023-04-01T00:18:37;1.83;;;1.13;;
51862;SDS011;37900;52.996;6.278;2023-04-01T00:21:03;1.38;;;1.20;;
51862;SDS011;37900;52.996;6.278;2023-04-01T00:23:29;1.58;;;1.10;;
51862;SDS011;37900;52.996;6.278;2023-04-01T00:25:55;2.03;;;1.13;;
51862;SDS011;37900;52.996;6.278;2023-04-01T00:28:21;1.35;;;1.05;;
51862;SDS011;37900;52.996;6.278;2023-04-01T00:30:47;1.45;;;1.10;;
51862;SDS011;37900;52.996;6.278;2023-04-01T00:33:12;1.92;;;1.27;;
51862;SDS011;37900;52.996;6.278;2023-04-01T00:35:38;1.15;;;0.90;;
51862;SDS011;37900;52.996;6.278;2023-04-01T00:38:04;1.27;;;0.90;;
51862;SDS011;37900;52.996;6.278;2023-04-01T00:43:02;1.58;;;0.93;;
51862;SDS011;37900;52.996;6.278;2023-04-01T00:45:33;1.20;;;0.80;;
51862;SDS011;37900;52.996;6.278;2023-04-01T00:48:00;2.33;;;1.40;;
51862;SDS011;37900;52.996;6.278;2023-04-01T00:50:31;1.40;;;0.77;;
51862;SDS011;37900;52.996;6.278;2023-04-01T00:52:59;1.60;;;0.85;;
51862;SDS011;37900;52.996;6.278;2023-04-01T00:55:25;1.65;;;1.10;;
51862;SDS011;37900;52.996;6.278;2023-04-01T00:57:55;1.90;;;1.20;;
51862;SDS011;37900;52.996;6.278;2023-04-01T01:00:23;1.95;;;1.35;;
51862;SDS011;37900;52.996;6.278;2023-04-01T01:02:51;3.80;;;1.20;;
51862;SDS011;37900;52.996;6.278;2023-04-01T01:05:17;1.08;;;0.80;;
51862;SDS011;37900;52.996;6.278;2023-04-01T01:08:10;1.58;;;0.85;;
51862;SDS011;37900;52.996;6.278;2023-04-01T01:10:42;1.92;;;1.20;;
51862;SDS011;37900;52.996;6.278;2023-04-01T01:13:25;1.00;;;0.80;;
51862;SDS011;37900;52.996;6.278;2023-04-01T01:16:00;1.13;;;0.82;;
51862;SDS011;37900;52.996;6.278;2023-04-01T01:18:35;1.20;;;0.90;;
51862;SDS011;37900;52.996;6.278;2023-04-01T01:35:36;1.63;;;0.80;;
51862;SDS011;37900;52.996;6.278;2023-04-01T01:38:06;2.42;;;1.40;;
51862;SDS011;37900;52.996;6.278;2023-04-01T01:40:36;0.77;;;0.77;;
51862;SDS011;37900;52.996;6.278;2023-04-01T01:43:06;0.90;;;0.80;;
51862;SDS011;37900;52.996;6.278;2023-04-01T01:45:38;2.08;;;1.00;;
51862;SDS011;37900;52.996;6.278;2023-04-01T01:48:08;2.08;;;0.90;;
51862;SDS011;37900;52.996;6.278;2023-04-01T01:50:35;1.52;;;0.98;;
51862;SDS011;37900;52.996;6.278;2023-04-01T01:53:05;1.17;;;0.80;;
51862;SDS011;37900;52.996;6.278;2023-04-01T01:55:37;1.25;;;0.98;;
51862;SDS011;37900;52.996;6.278;2023-04-01T01:58:13;0.95;;;0.70;;
51862;SDS011;37900;52.996;6.278;2023-04-01T02:00:43;0.63;;;0.63;;
51862;SDS011;37900;52.996;6.278;2023-04-01T02:03:12;2.00;;;0.80;;
51862;SDS011;37900;52.996;6.278;2023-04-01T02:05:40;1.40;;;1.00;;
51862;SDS011;37900;52.996;6.278;2023-04-01T02:08:20;1.17;;;0.98;;
51862;SDS011;37900;52.996;6.278;2023-04-01T02:11:01;1.10;;;0.70;;
51862;SDS011;37900;52.996;6.278;2023-04-01T02:13:35;1.27;;;0.70;;
51862;SDS011;37900;52.996;6.278;2023-04-01T02:16:31;1.77;;;1.10;;
51862;SDS011;37900;52.996;6.278;2023-04-01T02:18:56;0.82;;;0.73;;
51862;SDS011;37900;52.996;6.278;2023-04-01T02:21:26;1.17;;;0.85;;
51862;SDS011;37900;52.996;6.278;2023-04-01T02:23:55;1.30;;;0.75;;
51862;SDS011;37900;52.996;6.278;2023-04-01T02:26:24;0.75;;;0.60;;
51862;SDS011;37900;52.996;6.278;2023-04-01T02:28:52;0.60;;;0.60;;
51862;SDS011;37900;52.996;6.278;2023-04-01T02:31:19;0.93;;;0.75;;
51862;SDS011;37900;52.996;6.278;2023-04-01T02:36:13;0.73;;;0.70;;
51862;SDS011;37900;52.996;6.278;2023-04-01T02:38:41;2.78;;;1.00;;
51862;SDS011;37900;52.996;6.278;2023-04-01T02:41:08;0.82;;;0.60;;
51862;SDS011;37900;52.996;6.278;2023-04-01T02:43:34;1.55;;;0.88;;
51862;SDS011;37900;52.996;6.278;2023-04-01T02:46:00;1.08;;;0.80;;
51862;SDS011;37900;52.996;6.278;2023-04-01T02:48:27;0.70;;;0.70;;
51862;SDS011;37900;52.996;6.278;2023-04-01T02:50:52;1.13;;;0.70;;
51862;SDS011;37900;52.996;6.278;2023-04-01T02:53:18;0.98;;;0.70;;
51862;SDS011;37900;52.996;6.278;2023-04-01T02:55:44;0.50;;;0.50;;
51862;SDS011;37900;52.996;6.278;2023-04-01T02:58:10;0.55;;;0.55;;
51862;SDS011;37900;52.996;6.278;2023-04-01T03:00:36;0.85;;;0.65;;
51862;SDS011;37900;52.996;6.278;2023-04-01T03:03:02;1.65;;;0.80;;
51862;SDS011;37900;52.996;6.278;2023-04-01T03:05:28;0.63;;;0.63;;
51862;SDS011;37900;52.996;6.278;2023-04-01T03:07:54;1.33;;;0.80;;
51862;SDS011;37900;52.996;6.278;2023-04-01T03:10:20;1.52;;;0.73;;
51862;SDS011;37900;52.996;6.278;2023-04-01T03:12:46;1.35;;;0.60;;
51862;SDS011;37900;52.996;6.278;2023-04-01T03:15:13;1.00;;;0.60;;
51862;SDS011;37900;52.996;6.278;2023-04-01T03:17:40;0.90;;;0.65;;
51862;SDS011;37900;52.996;6.278;2023-04-01T03:20:08;0.90;;;0.70;;
51862;SDS011;37900;52.996;6.278;2023-04-01T03:22:35;0.85;;;0.60;;
51862;SDS011;37900;52.996;6.278;2023-04-01T03:25:02;0.75;;;0.60;;
51862;SDS011;37900;52.996;6.278;2023-04-01T03:27:29;0.90;;;0.75;;
51862;SDS011;37900;52.996;6.278;2023-04-01T03:29:55;1.17;;;0.70;;
51862;SDS011;37900;52.996;6.278;2023-04-01T03:32:20;1.15;;;0.60;;
51862;SDS011;37900;52.996;6.278;2023-04-01T03:34:46;1.15;;;0.80;;
51862;SDS011;37900;52.996;6.278;2023-04-01T03:37:12;0.82;;;0.52;;
51862;SDS011;37900;52.996;6.278;2023-04-01T03:39:39;1.20;;;0.80;;
51862;SDS011;37900;52.996;6.278;2023-04-01T03:42:04;0.68;;;0.55;;
51862;SDS011;37900;52.996;6.278;2023-04-01T03:44:32;2.15;;;0.70;;
51862;SDS011;37900;52.996;6.278;2023-04-01T03:46:58;1.20;;;0.80;;
51862;SDS011;37900;52.996;6.278;2023-04-01T03:49:24;0.90;;;0.60;;
51862;SDS011;37900;52.996;6.278;2023-04-01T03:51:51;0.68;;;0.50;;
51862;SDS011;37900;52.996;6.278;2023-04-01T03:54:17;0.77;;;0.43;;
51862;SDS011;37900;52.996;6.278;2023-04-01T03:56:45;0.70;;;0.65;;
51862;SDS011;37900;52.996;6.278;2023-04-01T03:59:11;1.08;;;0.60;;
51862;SDS011;37900;52.996;6.278;2023-04-01T04:01:37;1.30;;;0.75;;
51862;SDS011;37900;52.996;6.278;2023-04-01T04:04:03;1.13;;;0.73;;
51862;SDS011;37900;52.996;6.278;2023-04-01T04:06:29;0.60;;;0.60;;
51862;SDS011;37900;52.996;6.278;2023-04-01T04:08:55;0.55;;;0.50;;
51862;SDS011;37900;52.996;6.278;2023-04-01T04:11:21;0.57;;;0.50;;
51862;SDS011;37900;52.996;6.278;2023-04-01T04:13:48;1.13;;;0.50;;
51862;SDS011;37900;52.996;6.278;2023-04-01T04:16:14;0.50;;;0.50;;
51862;SDS011;37900;52.996;6.278;2023-04-01T04:18:41;0.70;;;0.50;;
51862;SDS011;37900;52.996;6.278;2023-04-01T04:21:10;1.60;;;0.80;;
51862;SDS011;37900;52.996;6.278;2023-04-01T04:23:38;0.82;;;0.55;;
51862;SDS011;37900;52.996;6.278;2023-04-01T04:26:05;1.08;;;0.60;;
51862;SDS011;37900;52.996;6.278;2023-04-01T04:28:32;0.50;;;0.45;;
51862;SDS011;37900;52.996;6.278;2023-04-01T04:30:59;0.70;;;0.50;;
51862;SDS011;37900;52.996;6.278;2023-04-01T04:33:25;0.70;;;0.70;;
51862;SDS011;37900;52.996;6.278;2023-04-01T04:35:51;0.95;;;0.63;;
51862;SDS011;37900;52.996;6.278;2023-04-01T04:38:19;0.57;;;0.50;;
51862;SDS011;37900;52.996;6.278;2023-04-01T04:40:45;0.73;;;0.70;;
51862;SDS011;37900;52.996;6.278;2023-04-01T04:43:12;1.40;;;0.68;;
51862;SDS011;37900;52.996;6.278;2023-04-01T04:45:39;1.27;;;0.70;;
51862;SDS011;37900;52.996;6.278;2023-04-01T04:48:06;1.02;;;0.50;;
51862;SDS011;37900;52.996;6.278;2023-04-01T04:50:33;0.50;;;0.40;;
51862;SDS011;37900;52.996;6.278;2023-04-01T04:52:59;0.38;;;0.35;;
51862;SDS011;37900;52.996;6.278;2023-04-01T04:55:24;0.93;;;0.70;;
51862;SDS011;37900;52.996;6.278;2023-04-01T04:57:50;0.57;;;0.40;;
51862;SDS011;37900;52.996;6.278;2023-04-01T05:00:16;0.43;;;0.43;;
51862;SDS011;37900;52.996;6.278;2023-04-01T05:02:42;0.83;;;0.60;;
51862;SDS011;37900;52.996;6.278;2023-04-01T05:05:08;0.73;;;0.50;;
51862;SDS011;37900;52.996;6.278;2023-04-01T05:07:34;0.50;;;0.50;;
51862;SDS011;37900;52.996;6.278;2023-04-01T05:09:59;0.65;;;0.50;;
51862;SDS011;37900;52.996;6.278;2023-04-01T05:12:26;0.40;;;0.40;;
51862;SDS011;37900;52.996;6.278;2023-04-01T05:14:51;0.30;;;0.30;;
51862;SDS011;37900;52.996;6.278;2023-04-01T05:17:17;0.43;;;0.43;;
51862;SDS011;37900;52.996;6.278;2023-04-01T05:19:43;0.70;;;0.70;;
51862;SDS011;37900;52.996;6.278;2023-04-01T05:22:08;0.60;;;0.60;;
51862;SDS011;37900;52.996;6.278;2023-04-01T05:24:34;0.57;;;0.57;;
51862;SDS011;37900;52.996;6.278;2023-04-01T05:27:00;0.95;;;0.60;;
51862;SDS011;37900;52.996;6.278;2023-04-01T05:29:26;0.47;;;0.47;;
51862;SDS011;37900;52.996;6.278;2023-04-01T05:31:52;0.50;;;0.50;;
51862;SDS011;37900;52.996;6.278;2023-04-01T05:34:17;0.93;;;0.50;;
51862;SDS011;37900;52.996;6.278;2023-04-01T05:36:43;0.60;;;0.60;;
51862;SDS011;37900;52.996;6.278;2023-04-01T05:39:09;0.50;;;0.40;;
51862;SDS011;37900;52.996;6.278;2023-04-01T05:41:36;0.82;;;0.55;;
51862;SDS011;37900;52.996;6.278;2023-04-01T05:44:02;0.50;;;0.50;;
51862;SDS011;37900;52.996;6.278;2023-04-01T05:46:28;0.45;;;0.45;;
51862;SDS011;37900;52.996;6.278;2023-04-01T05:48:54;0.73;;;0.52;;
51862;SDS011;37900;52.996;6.278;2023-04-01T05:51:20;0.80;;;0.70;;
51862;SDS011;37900;52.996;6.278;2023-04-01T05:53:46;0.50;;;0.45;;
51862;SDS011;37900;52.996;6.278;2023-04-01T05:56:12;0.95;;;0.55;;
51862;SDS011;37900;52.996;6.278;2023-04-01T05:58:37;0.40;;;0.40;;
51862;SDS011;37900;52.996;6.278;2023-04-01T06:01:04;0.73;;;0.60;;
51862;SDS011;37900;52.996;6.278;2023-04-01T06:03:32;0.52;;;0.45;;
51862;SDS011;37900;52.996;6.278;2023-04-01T06:05:58;1.05;;;0.60;;
51862;SDS011;37900;52.996;6.278;2023-04-01T06:08:26;0.90;;;0.50;;
51862;SDS011;37900;52.996;6.278;2023-04-01T06:33:08;1.13;;;0.30;;
51862;SDS011;37900;52.996;6.278;2023-04-01T06:38:52;0.50;;;0.50;;
51862;SDS011;37900;52.996;6.278;2023-04-01T06:47:33;0.90;;;0.70;;
51862;SDS011;37900;52.996;6.278;2023-04-01T06:50:29;0.35;;;0.30;;
51862;SDS011;37900;52.996;6.278;2023-04-01T06:53:13;0.45;;;0.40;;
51862;SDS011;37900;52.996;6.278;2023-04-01T06:55:46;0.32;;;0.30;;
51862;SDS011;37900;52.996;6.278;2023-04-01T06:58:34;0.30;;;0.30;;
51862;SDS011;37900;52.996;6.278;2023-04-01T07:01:06;0.40;;;0.40;;
51862;SDS011;37900;52.996;6.278;2023-04-01T07:03:40;0.50;;;0.50;;
51862;SDS011;37900;52.996;6.278;2023-04-01T07:06:12;0.70;;;0.60;;
51862;SDS011;37900;52.996;6.278;2023-04-01T07:08:45;0.50;;;0.50;;
51862;SDS011;37900;52.996;6.278;2023-04-01T07:11:31;0.43;;;0.40;;
51862;SDS011;37900;52.996;6.278;2023-04-01T07:14:00;0.40;;;0.40;;
51862;SDS011;37900;52.996;6.278;2023-04-01T07:16:30;0.40;;;0.40;;
51862;SDS011;37900;52.996;6.278;2023-04-01T07:19:09;1.27;;;0.40;;
51862;SDS011;37900;52.996;6.278;2023-04-01T07:22:03;0.82;;;0.57;;
51862;SDS011;37900;52.996;6.278;2023-04-01T07:24:36;0.65;;;0.50;;
51862;SDS011;37900;52.996;6.278;2023-04-01T07:27:08;0.77;;;0.60;;
51862;SDS011;37900;52.996;6.278;2023-04-01T07:29:35;0.40;;;0.40;;
51862;SDS011;37900;52.996;6.278;2023-04-01T07:32:19;0.43;;;0.30;;
51862;SDS011;37900;52.996;6.278;2023-04-01T07:48:58;0.63;;;0.52;;
51862;SDS011;37900;52.996;6.278;2023-04-01T07:51:27;0.50;;;0.47;;
51862;SDS011;37900;52.996;6.278;2023-04-01T07:54:13;0.47;;;0.47;;
51862;SDS011;37900;52.996;6.278;2023-04-01T08:07:24;0.50;;;0.50;;
51862;SDS011;37900;52.996;6.278;2023-04-01T08:15:50;0.40;;;0.40;;
51862;SDS011;37900;52.996;6.278;2023-04-01T08:21:49;0.75;;;0.50;;
51862;SDS011;37900;52.996;6.278;2023-04-01T08:24:05;0.50;;;0.50;;
51862;SDS011;37900;52.996;6.278;2023-04-01T08:26:57;0.90;;;0.65;;
51862;SDS011;37900;52.996;6.278;2023-04-01T08:29:37;0.90;;;0.60;;
51862;SDS011;37900;52.996;6.278;2023-04-01T08:32:13;0.77;;;0.47;;
51862;SDS011;37900;52.996;6.278;2023-04-01T08:34:44;1.30;;;0.73;;
51862;SDS011;37900;52.996;6.278;2023-04-01T08:37:17;1.40;;;0.85;;
51862;SDS011;37900;52.996;6.278;2023-04-01T08:39:52;1.98;;;0.70;;
51862;SDS011;37900;52.996;6.278;2023-04-01T08:57:03;1.30;;;0.55;;
51862;SDS011;37900;52.996;6.278;2023-04-01T09:10:41;0.57;;;0.57;;
51862;SDS011;37900;52.996;6.278;2023-04-01T09:16:02;1.15;;;1.00;;
51862;SDS011;37900;52.996;6.278;2023-04-01T09:31:49;0.70;;;0.63;;
51862;SDS011;37900;52.996;6.278;2023-04-01T09:37:21;2.15;;;0.80;;
51862;SDS011;37900;52.996;6.278;2023-04-01T09:42:44;0.80;;;0.60;;
51862;SDS011;37900;52.996;6.278;2023-04-01T09:45:42;1.00;;;0.90;;
51862;SDS011;37900;52.996;6.278;2023-04-01T10:06:59;1.10;;;1.00;;
51862;SDS011;37900;52.996;6.278;2023-04-01T10:23:52;1.00;;;0.90;;
51862;SDS011;37900;52.996;6.278;2023-04-01T10:32:24;1.50;;;1.25;;
51862;SDS011;37900;52.996;6.278;2023-04-01T10:35:28;1.40;;;1.08;;
51862;SDS011;37900;52.996;6.278;2023-04-01T10:44:11;1.67;;;1.23;;
51862;SDS011;37900;52.996;6.278;2023-04-01T10:50:35;1.50;;;1.20;;
51862;SDS011;37900;52.996;6.278;2023-04-01T11:01:36;3.42;;;1.80;;
51862;SDS011;37900;52.996;6.278;2023-04-01T11:24:57;1.85;;;1.67;;
51862;SDS011;37900;52.996;6.278;2023-04-01T11:27:52;3.38;;;1.58;;
51862;SDS011;37900;52.996;6.278;2023-04-01T11:33:54;1.63;;;1.30;;
51862;SDS011;37900;52.996;6.278;2023-04-01T11:36:37;2.10;;;1.70;;
51862;SDS011;37900;52.996;6.278;2023-04-01T11:39:29;1.70;;;1.40;;
51862;SDS011;37900;52.996;6.278;2023-04-01T11:48:07;2.63;;;1.67;;
51862;SDS011;37900;52.996;6.278;2023-04-01T12:01:55;1.63;;;1.30;;
51862;SDS011;37900;52.996;6.278;2023-04-01T12:10:26;1.60;;;1.35;;
51862;SDS011;37900;52.996;6.278;2023-04-01T12:13:33;4.65;;;1.55;;
51862;SDS011;37900;52.996;6.278;2023-04-01T12:18:53;1.92;;;1.50;;
51862;SDS011;37900;52.996;6.278;2023-04-01T12:21:35;1.98;;;1.17;;
51862;SDS011;37900;52.996;6.278;2023-04-01T13:08:10;1.30;;;0.90;;
51862;SDS011;37900;52.996;6.278;2023-04-01T13:10:52;1.30;;;1.10;;
51862;SDS011;37900;52.996;6.278;2023-04-01T13:16:42;0.98;;;0.95;;
51862;SDS011;37900;52.996;6.278;2023-04-01T13:19:19;2.17;;;1.00;;
51862;SDS011;37900;52.996;6.278;2023-04-01T13:22:35;1.80;;;0.90;;
51862;SDS011;37900;52.996;6.278;2023-04-01T13:24:58;0.80;;;0.80;;
51862;SDS011;37900;52.996;6.278;2023-04-01T13:27:43;1.60;;;0.85;;
51862;SDS011;37900;52.996;6.278;2023-04-01T13:33:04;1.30;;;1.00;;
51862;SDS011;37900;52.996;6.278;2023-04-01T13:54:12;1.10;;;1.00;;
51862;SDS011;37900;52.996;6.278;2023-04-01T14:17:06;1.20;;;0.90;;
51862;SDS011;37900;52.996;6.278;2023-04-01T14:27:41;1.20;;;1.10;;
51862;SDS011;37900;52.996;6.278;2023-04-01T14:30:23;0.98;;;0.90;;
51862;SDS011;37900;52.996;6.278;2023-04-01T14:33:01;0.93;;;0.82;;
51862;SDS011;37900;52.996;6.278;2023-04-01T14:43:47;0.90;;;0.80;;
51862;SDS011;37900;52.996;6.278;2023-04-01T14:52:17;1.08;;;0.88;;
51862;SDS011;37900;52.996;6.278;2023-04-01T14:54:53;0.85;;;0.75;;
51862;SDS011;37900;52.996;6.278;2023-04-01T15:08:41;1.60;;;1.08;;
51862;SDS011;37900;52.996;6.278;2023-04-01T15:11:33;0.65;;;0.60;;
51862;SDS011;37900;52.996;6.278;2023-04-01T15:14:26;0.77;;;0.68;;
51862;SDS011;37900;52.996;6.278;2023-04-01T15:23:01;0.90;;;0.90;;
51862;SDS011;37900;52.996;6.278;2023-04-01T15:31:37;0.50;;;0.50;;
51862;SDS011;37900;52.996;6.278;2023-04-01T15:36:59;1.30;;;0.70;;
51862;SDS011;37900;52.996;6.278;2023-04-01T15:39:50;0.65;;;0.65;;
51862;SDS011;37900;52.996;6.278;2023-04-01T15:59:53;1.00;;;0.70;;
51862;SDS011;37900;52.996;6.278;2023-04-01T16:02:40;1.20;;;0.85;;
51862;SDS011;37900;52.996;6.278;2023-04-01T16:16:23;0.80;;;0.80;;
51862;SDS011;37900;52.996;6.278;2023-04-01T16:26:55;0.68;;;0.68;;
51862;SDS011;37900;52.996;6.278;2023-04-01T16:32:41;0.90;;;0.60;;
51862;SDS011;37900;52.996;6.278;2023-04-01T16:35:36;1.23;;;0.82;;
51862;SDS011;37900;52.996;6.278;2023-04-01T16:40:53;1.38;;;0.70;;
51862;SDS011;37900;52.996;6.278;2023-04-01T16:43:26;1.00;;;0.82;;
51862;SDS011;37900;52.996;6.278;2023-04-01T16:57:29;1.10;;;0.90;;
51862;SDS011;37900;52.996;6.278;2023-04-01T17:02:49;0.82;;;0.68;;
51862;SDS011;37900;52.996;6.278;2023-04-01T17:05:35;0.70;;;0.70;;
51862;SDS011;37900;52.996;6.278;2023-04-01T17:08:15;0.85;;;0.70;;
51862;SDS011;37900;52.996;6.278;2023-04-01T17:11:07;0.63;;;0.63;;
51862;SDS011;37900;52.996;6.278;2023-04-01T17:13:46;0.70;;;0.70;;
51862;SDS011;37900;52.996;6.278;2023-04-01T17:24:48;0.73;;;0.60;;
51862;SDS011;37900;52.996;6.278;2023-04-01T17:28:10;1.08;;;0.90;;
51862;SDS011;37900;52.996;6.278;2023-04-01T17:36:27;1.75;;;0.93;;
51862;SDS011;37900;52.996;6.278;2023-04-01T17:42:38;0.63;;;0.63;;
51862;SDS011;37900;52.996;6.278;2023-04-01T17:51:36;1.13;;;0.80;;
51862;SDS011;37900;52.996;6.278;2023-04-01T18:02:15;0.95;;;0.82;;
51862;SDS011;37900;52.996;6.278;2023-04-01T18:27:03;2.60;;;1.05;;
51862;SDS011;37900;52.996;6.278;2023-04-01T18:29:35;1.13;;;1.00;;
51862;SDS011;37900;52.996;6.278;2023-04-01T18:32:31;1.60;;;1.13;;
51862;SDS011;37900;52.996;6.278;2023-04-01T18:37:42;1.17;;;0.90;;
51862;SDS011;37900;52.996;6.278;2023-04-01T18:40:17;2.00;;;1.27;;
51862;SDS011;37900;52.996;6.278;2023-04-01T18:42:56;2.75;;;1.20;;
51862;SDS011;37900;52.996;6.278;2023-04-01T18:45:27;1.38;;;1.13;;
51862;SDS011;37900;52.996;6.278;2023-04-01T18:50:38;1.80;;;1.27;;
51862;SDS011;37900;52.996;6.278;2023-04-01T18:53:12;3.55;;;1.40;;
51862;SDS011;37900;52.996;6.278;2023-04-01T18:55:46;1.25;;;1.08;;
51862;SDS011;37900;52.996;6.278;2023-04-01T18:58:34;1.33;;;1.17;;
51862;SDS011;37900;52.996;6.278;2023-04-01T19:06:49;1.85;;;1.08;;
51862;SDS011;37900;52.996;6.278;2023-04-01T19:09:44;2.05;;;1.38;;
51862;SDS011;37900;52.996;6.278;2023-04-01T19:12:24;2.03;;;1.40;;
51862;SDS011;37900;52.996;6.278;2023-04-01T19:17:58;2.08;;;1.35;;
51862;SDS011;37900;52.996;6.278;2023-04-01T19:20:51;2.78;;;1.73;;
51862;SDS011;37900;52.996;6.278;2023-04-01T19:37:32;2.55;;;1.33;;
51862;SDS011;37900;52.996;6.278;2023-04-01T19:42:14;2.13;;;1.35;;
51862;SDS011;37900;52.996;6.278;2023-04-01T19:50:27;1.50;;;1.40;;
51862;SDS011;37900;52.996;6.278;2023-04-01T19:53:03;2.08;;;1.38;;
51862;SDS011;37900;52.996;6.278;2023-04-01T19:55:50;2.33;;;1.40;;
51862;SDS011;37900;52.996;6.278;2023-04-01T20:01:15;1.45;;;1.20;;
51862;SDS011;37900;52.996;6.278;2023-04-01T20:03:57;1.65;;;1.50;;
51862;SDS011;37900;52.996;6.278;2023-04-01T20:22:52;2.60;;;1.48;;
51862;SDS011;37900;52.996;6.278;2023-04-01T20:25:27;1.92;;;1.58;;
51862;SDS011;37900;52.996;6.278;2023-04-01T20:36:16;2.20;;;1.50;;
51862;SDS011;37900;52.996;6.278;2023-04-01T20:39:04;2.05;;;1.30;;
51862;SDS011;37900;52.996;6.278;2023-04-01T20:44:43;2.78;;;1.58;;
51862;SDS011;37900;52.996;6.278;2023-04-01T20:52:55;2.55;;;1.60;;
51862;SDS011;37900;52.996;6.278;2023-04-01T21:09:13;2.58;;;1.55;;
51862;SDS011;37900;52.996;6.278;2023-04-01T21:14:29;3.00;;;1.50;;
51862;SDS011;37900;52.996;6.278;2023-04-01T21:30:44;1.92;;;1.40;;
51862;SDS011;37900;52.996;6.278;2023-04-01T21:36:20;1.98;;;1.40;;
51862;SDS011;37900;52.996;6.278;2023-04-01T21:44:54;2.20;;;1.40;;
51862;SDS011;37900;52.996;6.278;2023-04-01T21:51:03;1.98;;;1.63;;
51862;SDS011;37900;52.996;6.278;2023-04-01T22:04:20;2.28;;;1.38;;
51862;SDS011;37900;52.996;6.278;2023-04-01T22:06:58;2.72;;;1.23;;
51862;SDS011;37900;52.996;6.278;2023-04-01T22:10:33;2.88;;;1.40;;
51862;SDS011;37900;52.996;6.278;2023-04-01T22:18:08;4.47;;;1.63;;
51862;SDS011;37900;52.996;6.278;2023-04-01T22:21:08;2.47;;;1.65;;
51862;SDS011;37900;52.996;6.278;2023-04-01T22:23:48;2.90;;;1.48;;
51862;SDS011;37900;52.996;6.278;2023-04-01T22:28:51;2.55;;;1.38;;
51862;SDS011;37900;52.996;6.278;2023-04-01T22:31:28;1.85;;;1.30;;
51862;SDS011;37900;52.996;6.278;2023-04-01T22:50:09;1.95;;;1.40;;
51862;SDS011;37900;52.996;6.278;2023-04-01T22:52:42;1.77;;;1.45;;
51862;SDS011;37900;52.996;6.278;2023-04-01T22:55:12;1.52;;;1.27;;
51862;SDS011;37900;52.996;6.278;2023-04-01T22:57:44;3.50;;;1.25;;
51862;SDS011;37900;52.996;6.278;2023-04-01T23:00:17;2.60;;;1.35;;
51862;SDS011;37900;52.996;6.278;2023-04-01T23:05:56;2.13;;;1.40;;
51862;SDS011;37900;52.996;6.278;2023-04-01T23:11:24;2.43;;;1.50;;
51862;SDS011;37900;52.996;6.278;2023-04-01T23:16:32;2.47;;;1.33;;
51862;SDS011;37900;52.996;6.278;2023-04-01T23:19:17;1.75;;;1.30;;
51862;SDS011;37900;52.996;6.278;2023-04-01T23:21:50;1.52;;;1.20;;
51862;SDS011;37900;52.996;6.278;2023-04-01T23:24:33;2.08;;;1.40;;
51862;SDS011;37900;52.996;6.278;2023-04-01T23:27:08;2.97;;;1.10;;
51862;SDS011;37900;52.996;6.278;2023-04-01T23:29:41;1.73;;;1.23;;
51862;SDS011;37900;52.996;6.278;2023-04-01T23:32:17;1.38;;;1.20;;
51862;SDS011;37900;52.996;6.278;2023-04-01T23:34:51;1.73;;;1.38;;
51862;SDS011;37900;52.996;6.278;2023-04-01T23:37:18;3.42;;;1.63;;
51862;SDS011;37900;52.996;6.278;2023-04-01T23:39:45;1.83;;;1.40;;
51862;SDS011;37900;52.996;6.278;2023-04-01T23:42:24;2.78;;;1.38;;
51862;SDS011;37900;52.996;6.278;2023-04-01T23:45:17;2.08;;;1.60;;
51862;SDS011;37900;52.996;6.278;2023-04-01T23:47:45;2.63;;;1.48;;
51862;SDS011;37900;52.996;6.278;2023-04-01T23:50:23;1.60;;;1.23;;
51862;SDS011;37900;52.996;6.278;2023-04-01T23:55:26;2.20;;;1.40;;
